Aeroporto :
LOGIN :

Iscrizione | Disclaimer

   EN    FR    IT 

 










Sommario :    VFR   VFR Marginale   IFR   IFR Intensivo   IFR Molto Intensivo
Visibilità : 
Base nubi : 
>= 8 km
>= 3000ft
5 / 8 km
1000 / 3000 ft
1500m / 5 km
500 / 1000 ft
800 / 1500m
200 / 500 ft
< 800m
< 200 ft
Simboli :   Temporali  Nebbia  Neve Forte  Precipitazioni Forti  Vento > 20 kt
SIGMETs :   Varie  Temporali  Ghiacco  Turbolenza  Onda orograficha  Ceneri Vulcaniche






- Altitudine del aeroporto : 697 ft
- Codice IATA : PEG


LIRZ - San Edigio Perugia

ULTIMO METAR :
  • 091050Z AUTO 05010KT 020V090 9999 NCD 33/15 Q1016

METARs OBSOLETI :
  • 091020Z AUTO 08011KT 040V130 9999 NCD 33/16 Q1016
  • 090950Z AUTO 05012KT 9999 NCD 33/15 Q1016
  • 090920Z AUTO 04012KT 9999 NCD 32/15 Q1016
  • 090850Z AUTO 04011KT 020V080 9999 NCD 32/15 Q1016
  • 090820Z AUTO 05010KT 9999 NCD 30/16 Q1017

TAF TAF LIRZ
Valido dal 09 a 06 ore il 10 a 06 ore UTC


090533Z 0906/1006 02008KT CAVOK



MetMap, La meteo Aeronautica in un colpo d'occhio ! - Copyright ORBIFLY Dicembre 2007 - Disclaimer

ORBIFLY MET'MAP TEAM :

Programmazione e sviluppo : Alexandra Zaïnal
Concezione : Baudouin d'Aumeries
Aiuto per la programmazione : Marc-Olivier Méhu
Supporto tecnico e logistico : Manuel Goepfert
Aiuto per la traduzione : Arnaldo La Scala

Contatto : metmap@orbifly.com




FONTI E CREDITI :

   NOAA